HKMO/MBA METAR and TAF weather

Enter ICAO airport designator
Station Type Date Time Source
HKMO METAR 2020/11/25 11:00 UTC NOAA

HKMO 251100Z 15012KT SCT027 FEW028CB 32/21


Station Type Date Time Source
HKMO Decoded METAR 2020/11/25 11:00 UTC NOAA

Mombasa, Kenya (HKMO) 04-02S 039-37E 55M
Nov 25, 2020 - 06:00 AM EST / 2020.11.25 1100 UTC
Wind: from the SSE (150 degrees) at 14 MPH (12 KT):0
Sky conditions: partly cloudy
Weather: Cumulonimbus clouds observed
Temperature: 89 F (32 C)
Dew Point: 69 F (21 C)
Relative Humidity: 52%
ob: HKMO 251100Z 15012KT SCT027 FEW028CB 32/21
cycle: 11

Station Type Date Time Source
HKMO TAF 2020/11/24 06:59 UTC NOAA

TAF HKMO 240500Z 2406/2512 15010KT 9999 FEW026
BECMG 2500/2503 00000KT FEW020 SCT080

Example: see airport list